createdAt,value
2022-12-14T00:00:14.272Z,0.00
2022-12-14T00:01:14.247Z,0.00
2022-12-14T00:02:14.304Z,0.00
2022-12-14T00:03:14.300Z,0.00
2022-12-14T00:04:14.211Z,0.00
2022-12-14T00:05:14.219Z,0.00
2022-12-14T00:06:14.211Z,0.00
2022-12-14T00:07:14.201Z,0.00
2022-12-14T00:08:14.203Z,0.00
2022-12-14T00:09:14.175Z,0.00
2022-12-14T00:10:14.190Z,0.00
2022-12-14T00:11:14.176Z,0.00
2022-12-14T00:12:14.172Z,0.00
2022-12-14T00:13:14.148Z,0.00
2022-12-14T00:14:14.154Z,0.00
2022-12-14T00:15:14.143Z,0.00
2022-12-14T00:16:14.221Z,0.00
2022-12-14T00:17:14.125Z,0.00
2022-12-14T00:18:16.764Z,0.00
2022-12-14T00:19:14.114Z,0.00
2022-12-14T00:20:14.119Z,0.00
2022-12-14T00:21:14.114Z,0.00
2022-12-14T00:22:14.100Z,0.00
2022-12-14T00:23:14.092Z,0.00
2022-12-14T00:24:14.102Z,0.00
2022-12-14T00:25:14.066Z,0.00
2022-12-14T00:26:14.062Z,0.00
2022-12-14T00:27:14.062Z,0.00
2022-12-14T00:28:14.063Z,0.00
2022-12-14T00:29:14.046Z,0.00
2022-12-14T00:30:14.028Z,0.00
2022-12-14T00:31:14.098Z,0.00
2022-12-14T00:32:14.052Z,0.00
2022-12-14T00:33:14.006Z,0.00
2022-12-14T00:34:14.015Z,0.00
2022-12-14T00:35:13.993Z,0.00
2022-12-14T00:36:13.987Z,0.00
2022-12-14T00:37:13.975Z,0.00
2022-12-14T00:38:13.976Z,0.00
2022-12-14T00:39:13.982Z,0.00
2022-12-14T00:40:13.975Z,0.00
2022-12-14T00:41:13.949Z,0.00
2022-12-14T00:42:13.961Z,0.00
2022-12-14T00:43:13.943Z,0.00
2022-12-14T00:44:13.960Z,0.00
2022-12-14T00:45:13.922Z,0.00
2022-12-14T00:46:13.980Z,0.00
2022-12-14T00:47:13.921Z,0.00
2022-12-14T00:48:13.924Z,0.00
2022-12-14T00:49:13.905Z,0.00
2022-12-14T00:50:13.918Z,0.00
2022-12-14T00:51:13.876Z,0.00
2022-12-14T00:52:13.887Z,0.00
2022-12-14T00:53:13.868Z,0.00
2022-12-14T00:54:13.875Z,0.00
2022-12-14T00:55:13.869Z,0.00
2022-12-14T00:56:13.859Z,0.00
2022-12-14T00:57:13.855Z,0.00
2022-12-14T00:58:13.831Z,0.00
2022-12-14T00:59:13.834Z,0.00
2022-12-14T01:00:13.832Z,0.00
2022-12-14T01:01:14.035Z,0.00
2022-12-14T01:02:13.961Z,0.00
2022-12-14T01:03:13.866Z,0.00
2022-12-14T01:04:13.859Z,0.00
2022-12-14T01:05:13.784Z,0.00
2022-12-14T01:06:13.789Z,0.00
2022-12-14T01:07:13.770Z,0.00
2022-12-14T01:08:13.779Z,0.00
2022-12-14T01:09:13.762Z,0.00
2022-12-14T01:10:13.760Z,0.00
2022-12-14T01:11:13.741Z,0.00
2022-12-14T01:12:13.734Z,0.00
2022-12-14T01:13:13.737Z,0.00
2022-12-14T01:14:13.719Z,0.00
2022-12-14T01:15:13.729Z,0.00
2022-12-14T01:16:13.912Z,0.00
2022-12-14T01:17:13.708Z,0.00
2022-12-14T01:18:13.703Z,0.00
2022-12-14T01:19:13.696Z,0.00
2022-12-14T01:20:13.699Z,0.00
2022-12-14T01:21:13.665Z,0.00
2022-12-14T01:22:13.683Z,0.00
2022-12-14T01:23:13.651Z,0.00
2022-12-14T01:24:13.670Z,0.00
2022-12-14T01:25:13.640Z,0.00
2022-12-14T01:26:13.655Z,0.00
2022-12-14T01:27:13.628Z,0.00
2022-12-14T01:28:13.627Z,0.00
2022-12-14T01:29:13.653Z,0.00
2022-12-14T01:30:13.609Z,0.00
2022-12-14T01:31:13.666Z,0.00
2022-12-14T01:32:13.590Z,0.00
2022-12-14T01:33:13.590Z,0.00
2022-12-14T01:34:13.596Z,0.00
2022-12-14T01:35:13.578Z,0.00
2022-12-14T01:36:13.582Z,0.00
2022-12-14T01:37:13.566Z,0.00
2022-12-14T01:38:13.570Z,0.00
2022-12-14T01:39:13.706Z,0.00
2022-12-14T01:40:13.537Z,0.00
2022-12-14T01:41:13.523Z,0.00
2022-12-14T01:42:13.527Z,0.00
2022-12-14T01:43:13.522Z,0.00
2022-12-14T01:44:13.518Z,0.00
2022-12-14T01:45:13.503Z,0.00
2022-12-14T01:46:13.528Z,0.00
2022-12-14T01:47:13.505Z,0.00
2022-12-14T01:48:13.492Z,0.00
2022-12-14T01:49:13.497Z,0.00
2022-12-14T01:50:13.481Z,0.00
2022-12-14T01:51:13.471Z,0.00
2022-12-14T01:52:13.481Z,0.00
2022-12-14T01:53:13.445Z,0.00
2022-12-14T01:54:13.525Z,0.00
2022-12-14T01:55:13.438Z,0.00
2022-12-14T01:56:13.440Z,0.00
2022-12-14T01:57:13.430Z,0.00
2022-12-14T01:58:13.417Z,0.00
2022-12-14T01:59:13.484Z,0.00
2022-12-14T02:00:13.390Z,0.00
2022-12-14T02:01:13.424Z,0.00
2022-12-14T02:02:13.515Z,0.00
2022-12-14T02:03:13.438Z,0.00
2022-12-14T02:04:13.382Z,0.00
2022-12-14T02:05:13.375Z,0.00
2022-12-14T02:06:13.359Z,0.00
2022-12-14T02:07:13.380Z,0.00
2022-12-14T02:08:13.352Z,0.00
2022-12-14T02:09:13.344Z,0.00
2022-12-14T02:10:13.336Z,0.00
2022-12-14T02:11:13.332Z,0.00
2022-12-14T02:12:13.321Z,0.00
2022-12-14T02:13:13.313Z,0.00
2022-12-14T02:14:13.293Z,0.00
2022-12-14T02:15:13.286Z,0.00
2022-12-14T02:16:13.329Z,0.00
2022-12-14T02:17:13.270Z,0.00
2022-12-14T02:18:13.269Z,0.00
2022-12-14T02:19:13.259Z,0.00
2022-12-14T02:20:13.263Z,0.00
2022-12-14T02:21:13.246Z,0.00
2022-12-14T02:22:13.230Z,0.00
2022-12-14T02:23:13.245Z,0.00
2022-12-14T02:24:13.238Z,0.00
2022-12-14T02:25:13.215Z,0.00
2022-12-14T02:26:13.221Z,0.00
2022-12-14T02:27:13.204Z,0.00
2022-12-14T02:28:13.205Z,0.00
2022-12-14T02:29:13.204Z,0.00
2022-12-14T02:30:13.188Z,0.00
2022-12-14T02:31:13.261Z,0.00
2022-12-14T02:32:13.173Z,0.00
2022-12-14T02:33:13.157Z,0.00
2022-12-14T02:34:13.148Z,0.00
2022-12-14T02:35:13.143Z,0.00
2022-12-14T02:36:13.139Z,0.00
2022-12-14T02:37:13.134Z,0.00
2022-12-14T02:38:13.128Z,0.00
2022-12-14T02:39:13.148Z,0.00
2022-12-14T02:40:13.123Z,0.00
2022-12-14T02:41:13.100Z,0.00
2022-12-14T02:42:13.114Z,0.00
2022-12-14T02:43:13.103Z,0.00
2022-12-14T02:44:13.092Z,0.00
2022-12-14T02:45:13.070Z,0.00
2022-12-14T02:46:13.140Z,0.00
2022-12-14T02:47:13.115Z,0.00
2022-12-14T02:48:13.079Z,0.00
2022-12-14T02:49:13.050Z,0.00
2022-12-14T02:50:13.033Z,0.00
2022-12-14T02:51:13.033Z,0.00
2022-12-14T02:52:13.022Z,0.00
2022-12-14T02:53:13.022Z,0.00
2022-12-14T02:54:13.010Z,0.00
2022-12-14T02:55:13.012Z,0.00
2022-12-14T02:56:13.023Z,0.00
2022-12-14T02:57:12.995Z,0.00
2022-12-14T02:58:12.981Z,0.00
2022-12-14T02:59:13.001Z,0.00
2022-12-14T03:00:12.973Z,0.00
2022-12-14T03:01:13.205Z,0.00
2022-12-14T03:02:13.102Z,0.00
2022-12-14T03:03:12.945Z,0.00
2022-12-14T03:04:12.953Z,0.00
2022-12-14T03:05:12.930Z,0.00
2022-12-14T03:06:12.919Z,0.00
2022-12-14T03:07:12.918Z,0.00
2022-12-14T03:08:12.904Z,0.00
2022-12-14T03:09:12.903Z,0.00
2022-12-14T03:10:12.906Z,0.00
2022-12-14T03:11:12.889Z,0.00
2022-12-14T03:12:12.909Z,0.00
2022-12-14T03:13:12.878Z,0.00
2022-12-14T03:14:12.860Z,0.00
2022-12-14T03:15:12.857Z,0.00
2022-12-14T03:16:12.936Z,0.00
2022-12-14T03:17:16.407Z,0.00
2022-12-14T03:18:12.833Z,0.00
2022-12-14T03:19:12.832Z,0.00
2022-12-14T03:20:12.820Z,0.00
2022-12-14T03:21:12.818Z,0.00
2022-12-14T03:22:12.826Z,0.00
2022-12-14T03:23:12.821Z,0.00
2022-12-14T03:24:12.819Z,0.00
2022-12-14T03:25:12.799Z,0.00
2022-12-14T03:26:12.776Z,0.00
2022-12-14T03:27:12.773Z,0.00
2022-12-14T03:28:12.801Z,0.00
2022-12-14T03:29:12.773Z,0.00
2022-12-14T03:30:12.750Z,0.00
2022-12-14T03:31:12.812Z,0.00
2022-12-14T03:32:12.740Z,0.00
2022-12-14T03:33:12.730Z,0.00
2022-12-14T03:34:13.138Z,0.00
2022-12-14T03:35:12.721Z,0.00
2022-12-14T03:36:12.725Z,0.00
2022-12-14T03:37:12.701Z,0.00
2022-12-14T03:38:12.706Z,0.00
2022-12-14T03:39:12.699Z,0.00
2022-12-14T03:40:12.694Z,0.00
2022-12-14T03:41:12.685Z,0.00
2022-12-14T03:42:12.679Z,0.00
2022-12-14T03:43:12.660Z,0.00
2022-12-14T03:44:12.681Z,0.00
2022-12-14T03:45:12.673Z,0.00
2022-12-14T03:46:12.720Z,0.00
2022-12-14T03:47:12.663Z,0.00
2022-12-14T03:48:15.244Z,0.00
2022-12-14T03:49:15.693Z,0.00
2022-12-14T03:50:12.602Z,0.00
2022-12-14T03:51:12.611Z,0.00
2022-12-14T03:52:12.600Z,0.00
2022-12-14T03:53:12.588Z,0.00
2022-12-14T03:54:12.677Z,0.00
2022-12-14T03:55:12.571Z,0.00
2022-12-14T03:56:12.570Z,0.00
2022-12-14T03:57:12.560Z,0.00
2022-12-14T03:58:12.553Z,0.00
2022-12-14T03:59:12.557Z,0.00
2022-12-14T04:00:12.567Z,0.00
2022-12-14T04:01:12.682Z,0.00
2022-12-14T04:02:12.718Z,0.00
2022-12-14T04:03:12.568Z,0.00
2022-12-14T04:04:12.504Z,0.00
2022-12-14T04:05:12.522Z,0.00
2022-12-14T04:06:12.489Z,0.00
2022-12-14T04:07:12.498Z,0.00
2022-12-14T04:08:12.476Z,0.00
2022-12-14T04:09:12.490Z,0.00
2022-12-14T04:10:12.473Z,0.00
2022-12-14T04:11:12.473Z,0.00
2022-12-14T04:12:12.465Z,0.00
2022-12-14T04:13:12.443Z,0.00
2022-12-14T04:14:12.445Z,0.00
2022-12-14T04:15:12.429Z,0.00
2022-12-14T04:16:12.478Z,0.00
2022-12-14T04:17:12.427Z,0.00
2022-12-14T04:18:12.416Z,0.00
2022-12-14T04:19:12.406Z,0.00
2022-12-14T04:20:12.410Z,0.00
2022-12-14T04:21:12.389Z,0.00
2022-12-14T04:22:12.394Z,0.00
2022-12-14T04:23:12.375Z,0.00
2022-12-14T04:24:12.397Z,0.00
2022-12-14T04:25:12.355Z,0.00
2022-12-14T04:26:12.364Z,0.00
2022-12-14T04:27:12.362Z,0.00
2022-12-14T04:28:12.334Z,0.00
2022-12-14T04:29:12.329Z,0.00
2022-12-14T04:30:12.341Z,0.00
2022-12-14T04:31:12.397Z,0.00
2022-12-14T04:32:12.409Z,0.00
2022-12-14T04:33:12.317Z,0.00
2022-12-14T04:34:12.289Z,0.00
2022-12-14T04:35:12.303Z,0.00
2022-12-14T04:36:12.273Z,0.00
2022-12-14T04:37:12.276Z,0.00
2022-12-14T04:38:12.264Z,0.00
2022-12-14T04:39:12.260Z,0.00
2022-12-14T04:40:12.246Z,0.00
2022-12-14T04:41:12.257Z,0.00
2022-12-14T04:42:12.258Z,0.00
2022-12-14T04:43:12.232Z,0.00
2022-12-14T04:44:12.234Z,0.00
2022-12-14T04:45:12.232Z,0.00
2022-12-14T04:46:12.270Z,0.00
2022-12-14T04:47:12.200Z,0.00
2022-12-14T04:48:12.221Z,0.00
2022-12-14T04:49:12.210Z,0.00
2022-12-14T04:50:12.175Z,0.00
2022-12-14T04:51:12.185Z,0.00
2022-12-14T04:52:12.158Z,0.00
2022-12-14T04:53:12.182Z,0.00
2022-12-14T04:54:12.157Z,0.00
2022-12-14T04:55:12.162Z,0.00
2022-12-14T04:56:12.150Z,0.00
2022-12-14T04:57:17.370Z,0.00
2022-12-14T04:58:12.126Z,0.00
2022-12-14T04:59:12.116Z,0.00
2022-12-14T05:00:12.122Z,0.00
2022-12-14T05:01:12.276Z,0.00
2022-12-14T05:02:12.268Z,0.00
2022-12-14T05:03:12.161Z,0.00
2022-12-14T05:04:12.910Z,0.00
2022-12-14T05:05:12.087Z,0.00
2022-12-14T05:06:12.061Z,0.00
2022-12-14T05:07:12.075Z,0.00
2022-12-14T05:08:12.056Z,0.00
2022-12-14T05:09:12.042Z,0.00
2022-12-14T05:10:12.034Z,0.00
2022-12-14T05:11:49.674Z,0.00
2022-12-14T05:12:12.033Z,0.00
2022-12-14T05:13:12.026Z,0.00
2022-12-14T05:14:12.015Z,0.00
2022-12-14T05:15:12.014Z,0.00
2022-12-14T05:16:12.003Z,0.00
2022-12-14T05:17:12.067Z,0.00
2022-12-14T05:18:11.983Z,0.00
2022-12-14T05:19:12.178Z,0.00
2022-12-14T05:20:11.991Z,0.00
2022-12-14T05:21:11.970Z,0.00
2022-12-14T05:22:11.967Z,0.00
2022-12-14T05:23:11.939Z,0.00
2022-12-14T05:24:11.934Z,0.00
2022-12-14T05:25:11.937Z,0.00
2022-12-14T05:26:11.926Z,0.00
2022-12-14T05:27:11.923Z,0.00
2022-12-14T05:28:11.941Z,0.00
2022-12-14T05:29:11.920Z,0.00
2022-12-14T05:30:11.883Z,0.00
2022-12-14T05:31:11.939Z,0.00
2022-12-14T05:32:11.897Z,0.00
2022-12-14T05:33:11.873Z,0.00
2022-12-14T05:34:11.855Z,0.00
2022-12-14T05:35:11.866Z,0.00
2022-12-14T05:36:11.867Z,0.00
2022-12-14T05:37:18.017Z,0.00
2022-12-14T05:38:11.841Z,0.00
2022-12-14T05:39:11.852Z,0.00
2022-12-14T05:40:11.840Z,0.00
2022-12-14T05:41:11.830Z,0.00
2022-12-14T05:42:11.817Z,0.00
2022-12-14T05:43:11.802Z,0.00
2022-12-14T05:44:11.808Z,0.00
2022-12-14T05:45:11.796Z,0.00
2022-12-14T05:46:11.913Z,0.00
2022-12-14T05:47:11.773Z,0.00
2022-12-14T05:48:11.782Z,0.00
2022-12-14T05:49:11.751Z,0.00
2022-12-14T05:50:11.755Z,0.00
2022-12-14T05:51:11.740Z,0.00
2022-12-14T05:52:11.744Z,0.00
2022-12-14T05:53:11.739Z,0.00
2022-12-14T05:54:11.744Z,0.00
2022-12-14T05:55:11.712Z,0.00
2022-12-14T05:56:11.696Z,0.00
2022-12-14T05:57:11.710Z,0.00
2022-12-14T05:58:11.683Z,0.00
2022-12-14T05:59:11.686Z,0.00
2022-12-14T06:00:11.676Z,0.00
2022-12-14T06:01:18.488Z,0.00
2022-12-14T06:02:11.777Z,0.00
2022-12-14T06:03:11.661Z,0.00
2022-12-14T06:04:11.685Z,0.00
2022-12-14T06:05:11.660Z,0.00
2022-12-14T06:06:11.634Z,0.00
2022-12-14T06:07:11.637Z,0.00
2022-12-14T06:08:11.640Z,0.00
2022-12-14T06:09:11.646Z,0.00
2022-12-14T06:10:11.607Z,0.00
2022-12-14T06:11:11.608Z,0.00
2022-12-14T06:12:11.607Z,0.00
2022-12-14T06:13:11.596Z,0.00
2022-12-14T06:14:11.604Z,0.00
2022-12-14T06:15:11.583Z,0.00
2022-12-14T06:16:11.682Z,0.00
2022-12-14T06:17:11.571Z,0.00
2022-12-14T06:18:11.572Z,0.00
2022-12-14T06:19:11.547Z,0.00
2022-12-14T06:20:11.554Z,0.00
2022-12-14T06:21:11.549Z,0.00
2022-12-14T06:22:11.534Z,0.00
2022-12-14T06:23:11.536Z,0.00
2022-12-14T06:24:11.557Z,0.00
2022-12-14T06:25:11.506Z,0.00
2022-12-14T06:26:11.517Z,0.00
2022-12-14T06:27:11.502Z,0.00
2022-12-14T06:28:11.510Z,0.00
2022-12-14T06:29:11.518Z,4.00
2022-12-14T06:30:11.484Z,4.00
2022-12-14T06:31:11.492Z,4.00
2022-12-14T06:32:11.492Z,4.00
2022-12-14T06:33:11.460Z,4.00
2022-12-14T06:34:11.452Z,4.00
2022-12-14T06:35:11.476Z,4.00
2022-12-14T06:36:11.448Z,4.00
2022-12-14T06:37:11.452Z,4.00
2022-12-14T06:38:11.448Z,4.00
2022-12-14T06:39:11.427Z,4.00
2022-12-14T06:40:11.460Z,4.00
2022-12-14T06:41:11.426Z,4.00
2022-12-14T06:42:11.416Z,4.00
2022-12-14T06:43:11.423Z,0.00
2022-12-14T06:44:11.409Z,4.00
2022-12-14T06:45:11.395Z,4.00
2022-12-14T06:46:15.143Z,4.00
2022-12-14T06:47:11.388Z,4.00
2022-12-14T06:48:11.373Z,4.00
2022-12-14T06:49:11.379Z,4.00
2022-12-14T06:50:11.377Z,4.00
2022-12-14T06:51:11.361Z,0.00
2022-12-14T06:52:11.354Z,0.00
2022-12-14T06:53:11.356Z,0.00
2022-12-14T06:54:11.368Z,0.00
2022-12-14T06:55:11.332Z,0.00
2022-12-14T06:56:11.466Z,0.00
2022-12-14T06:57:11.320Z,0.00
2022-12-14T06:58:11.333Z,0.00
2022-12-14T06:59:11.332Z,0.00
2022-12-14T07:00:11.310Z,0.00
2022-12-14T07:01:11.429Z,0.00
2022-12-14T07:02:11.363Z,0.00
2022-12-14T07:03:11.394Z,0.00
2022-12-14T07:04:11.307Z,0.00
2022-12-14T07:05:11.275Z,0.00
2022-12-14T07:06:11.285Z,0.00
2022-12-14T07:07:11.269Z,0.00
2022-12-14T07:08:11.273Z,0.00
2022-12-14T07:09:11.265Z,0.00
2022-12-14T07:10:11.253Z,0.00
2022-12-14T07:11:11.257Z,0.00
2022-12-14T07:12:11.258Z,0.00
2022-12-14T07:13:11.242Z,0.00
2022-12-14T07:14:11.240Z,4.00
2022-12-14T07:15:11.220Z,4.00
2022-12-14T07:16:11.265Z,4.00
2022-12-14T07:17:11.216Z,4.00
2022-12-14T07:18:11.211Z,0.00
2022-12-14T07:19:11.195Z,4.00
2022-12-14T07:20:11.193Z,8.00
2022-12-14T07:21:11.185Z,8.00
2022-12-14T07:22:11.187Z,4.00
2022-12-14T07:23:11.189Z,4.00
2022-12-14T07:24:11.173Z,8.00
2022-12-14T07:25:11.176Z,8.00
2022-12-14T07:26:11.180Z,4.00
2022-12-14T07:27:11.155Z,8.00
2022-12-14T07:28:11.186Z,8.00
2022-12-14T07:29:11.152Z,12.00
2022-12-14T07:30:11.144Z,8.00
2022-12-14T07:31:11.182Z,12.00
2022-12-14T07:32:11.144Z,8.00
2022-12-14T07:33:11.131Z,12.00
2022-12-14T07:34:11.128Z,12.00
2022-12-14T07:35:16.375Z,16.00
2022-12-14T07:36:11.119Z,16.00
2022-12-14T07:37:11.116Z,12.00
2022-12-14T07:38:11.093Z,16.00
2022-12-14T07:39:11.104Z,20.00
2022-12-14T07:40:11.100Z,16.00
2022-12-14T07:41:11.082Z,20.00
2022-12-14T07:42:11.068Z,20.00
2022-12-14T07:43:11.064Z,20.00
2022-12-14T07:44:11.076Z,24.00
2022-12-14T07:45:11.049Z,28.00
2022-12-14T07:46:11.086Z,28.00
2022-12-14T07:47:15.164Z,32.00
2022-12-14T07:48:11.038Z,36.00
2022-12-14T07:49:11.039Z,40.00
2022-12-14T07:50:11.024Z,44.00
2022-12-14T07:51:11.029Z,44.00
2022-12-14T07:52:11.027Z,48.00
2022-12-14T07:53:11.015Z,48.00
2022-12-14T07:54:11.002Z,52.00
2022-12-14T07:55:10.991Z,52.00
2022-12-14T07:56:11.004Z,56.00
2022-12-14T07:57:10.990Z,56.00
2022-12-14T07:58:10.991Z,56.00
2022-12-14T07:59:10.981Z,56.00
2022-12-14T08:00:10.995Z,52.00
2022-12-14T08:01:10.992Z,52.00
2022-12-14T08:02:11.091Z,56.00
2022-12-14T08:03:10.955Z,52.00
2022-12-14T08:04:10.984Z,60.00
2022-12-14T08:05:12.738Z,60.00
2022-12-14T08:06:10.940Z,60.00
2022-12-14T08:07:10.920Z,60.00
2022-12-14T08:08:10.924Z,64.00
2022-12-14T08:09:10.905Z,68.00
2022-12-14T08:10:10.916Z,72.00
2022-12-14T08:11:10.914Z,80.00
2022-12-14T08:12:10.901Z,92.00
2022-12-14T08:13:10.890Z,96.00
2022-12-14T08:14:10.878Z,104.00
2022-12-14T08:15:10.892Z,112.00
2022-12-14T08:16:10.978Z,116.00
2022-12-14T08:17:10.853Z,116.00
2022-12-14T08:18:10.863Z,124.00
2022-12-14T08:19:10.840Z,120.00
2022-12-14T08:20:10.853Z,128.00
2022-12-14T08:21:10.835Z,128.00
2022-12-14T08:22:10.840Z,124.00
2022-12-14T08:23:10.832Z,128.00
2022-12-14T08:24:10.826Z,132.00
2022-12-14T08:25:10.819Z,140.00
2022-12-14T08:26:10.807Z,152.00
2022-12-14T08:27:10.806Z,164.00
2022-12-14T08:28:10.801Z,176.00
2022-12-14T08:29:10.793Z,188.00
2022-12-14T08:30:10.790Z,200.00
2022-12-14T08:31:10.858Z,204.00
2022-12-14T08:32:10.784Z,204.00
2022-12-14T08:33:10.776Z,200.00
2022-12-14T08:34:10.764Z,196.00
2022-12-14T08:35:10.739Z,196.00
2022-12-14T08:36:10.747Z,196.00
2022-12-14T08:37:10.731Z,200.00
2022-12-14T08:38:10.730Z,204.00
2022-12-14T08:39:10.733Z,204.00
2022-12-14T08:40:10.726Z,204.00
2022-12-14T08:41:10.716Z,196.00
2022-12-14T08:42:10.698Z,184.00
2022-12-14T08:43:10.714Z,168.00
2022-12-14T08:44:10.685Z,156.00
2022-12-14T08:45:10.678Z,148.00
2022-12-14T08:46:10.803Z,140.00
2022-12-14T08:47:10.749Z,132.00
2022-12-14T08:48:10.682Z,128.00
2022-12-14T08:49:10.667Z,128.00
2022-12-14T08:50:10.651Z,124.00
2022-12-14T08:51:10.650Z,128.00
2022-12-14T08:52:10.651Z,128.00
2022-12-14T08:53:10.624Z,124.00
2022-12-14T08:54:12.885Z,120.00
2022-12-14T08:55:10.674Z,116.00
2022-12-14T08:56:10.665Z,116.00
2022-12-14T08:57:10.605Z,124.00
2022-12-14T08:58:10.613Z,124.00
2022-12-14T08:59:19.817Z,128.00
2022-12-14T09:00:10.588Z,132.00
2022-12-14T09:01:10.655Z,132.00
2022-12-14T09:02:10.752Z,128.00
2022-12-14T09:03:10.628Z,128.00
2022-12-14T09:04:10.564Z,128.00
2022-12-14T09:05:10.567Z,132.00
2022-12-14T09:06:10.560Z,136.00
2022-12-14T09:07:10.537Z,148.00
2022-12-14T09:08:10.531Z,156.00
2022-12-14T09:09:16.165Z,164.00
2022-12-14T09:10:10.531Z,168.00
2022-12-14T09:11:10.510Z,176.00
2022-12-14T09:12:10.523Z,184.00
2022-12-14T09:13:10.516Z,196.00
2022-12-14T09:14:10.514Z,208.00
2022-12-14T09:15:10.487Z,224.00
2022-12-14T09:16:10.528Z,232.00
2022-12-14T09:17:10.484Z,240.00
2022-12-14T09:18:10.469Z,240.00
2022-12-14T09:19:10.464Z,240.00
2022-12-14T09:20:10.474Z,236.00
2022-12-14T09:21:10.447Z,228.00
2022-12-14T09:22:10.483Z,220.00
2022-12-14T09:23:10.434Z,212.00
2022-12-14T09:24:10.448Z,200.00
2022-12-14T09:25:10.424Z,196.00
2022-12-14T09:26:10.421Z,196.00
2022-12-14T09:27:10.423Z,196.00
2022-12-14T09:28:10.415Z,204.00
2022-12-14T09:29:10.414Z,208.00
2022-12-14T09:30:10.397Z,212.00
2022-12-14T09:31:10.449Z,220.00
2022-12-14T09:32:10.385Z,228.00
2022-12-14T09:33:10.517Z,228.00
2022-12-14T09:34:10.383Z,232.00
2022-12-14T09:35:10.357Z,240.00
2022-12-14T09:36:10.359Z,244.00
2022-12-14T09:37:10.348Z,248.00
2022-12-14T09:38:10.345Z,256.00
2022-12-14T09:39:10.352Z,264.00
2022-12-14T09:40:10.338Z,280.00
2022-12-14T09:41:10.342Z,288.00
2022-12-14T09:42:10.333Z,292.00
2022-12-14T09:43:10.313Z,296.00
2022-12-14T09:44:16.220Z,300.00
2022-12-14T09:45:10.317Z,300.00
2022-12-14T09:46:10.397Z,296.00
2022-12-14T09:47:10.299Z,292.00
2022-12-14T09:48:10.301Z,300.00
2022-12-14T09:49:10.288Z,312.00
2022-12-14T09:50:10.269Z,316.00
2022-12-14T09:51:10.333Z,312.00
2022-12-14T09:52:10.270Z,300.00
2022-12-14T09:53:10.263Z,292.00
2022-12-14T09:54:10.256Z,288.00
2022-12-14T09:55:10.237Z,284.00
2022-12-14T09:56:10.248Z,276.00
2022-12-14T09:57:10.240Z,268.00
2022-12-14T09:58:10.243Z,264.00
2022-12-14T09:59:10.222Z,272.00
2022-12-14T10:00:10.220Z,280.00
2022-12-14T10:01:10.400Z,296.00
2022-12-14T10:03:10.328Z,328.00
2022-12-14T10:04:10.320Z,324.00
2022-12-14T10:05:10.168Z,312.00
2022-12-14T10:06:10.178Z,300.00
2022-12-14T10:07:10.172Z,284.00
2022-12-14T10:08:10.156Z,280.00
2022-12-14T10:09:10.162Z,288.00
2022-12-14T10:10:10.160Z,288.00
2022-12-14T10:11:10.138Z,284.00
2022-12-14T10:12:10.162Z,284.00
2022-12-14T10:13:10.123Z,288.00
2022-12-14T10:14:10.118Z,292.00
2022-12-14T10:15:10.109Z,300.00
2022-12-14T10:16:10.150Z,308.00
2022-12-14T10:17:10.223Z,316.00
2022-12-14T10:18:27.569Z,308.00
2022-12-14T10:19:10.977Z,292.00
2022-12-14T10:20:10.093Z,276.00
2022-12-14T10:21:10.070Z,260.00
2022-12-14T10:22:10.074Z,256.00
2022-12-14T10:23:10.070Z,256.00
2022-12-14T10:24:10.072Z,260.00
2022-12-14T10:25:10.056Z,256.00
2022-12-14T10:26:10.037Z,248.00
2022-12-14T10:27:10.050Z,244.00
2022-12-14T10:28:11.491Z,236.00
2022-12-14T10:29:10.047Z,228.00
2022-12-14T10:30:10.023Z,220.00
2022-12-14T10:31:10.019Z,204.00
2022-12-14T10:32:10.091Z,188.00
2022-12-14T10:33:10.008Z,184.00
2022-12-14T10:34:12.358Z,184.00
2022-12-14T10:35:09.982Z,184.00
2022-12-14T10:36:09.971Z,192.00
2022-12-14T10:37:09.979Z,192.00
2022-12-14T10:38:09.963Z,196.00
2022-12-14T10:39:09.973Z,192.00
2022-12-14T10:40:16.392Z,192.00
2022-12-14T10:41:09.954Z,192.00
2022-12-14T10:42:09.931Z,188.00
2022-12-14T10:43:09.942Z,192.00
2022-12-14T10:44:09.940Z,188.00
2022-12-14T10:45:39.205Z,184.00
2022-12-14T10:46:13.917Z,180.00
2022-12-14T10:47:09.922Z,176.00
2022-12-14T10:48:09.914Z,172.00
2022-12-14T10:49:09.904Z,168.00
2022-12-14T10:50:09.879Z,172.00
2022-12-14T10:51:09.882Z,168.00
2022-12-14T10:52:09.890Z,168.00
2022-12-14T10:53:09.881Z,164.00
2022-12-14T10:54:09.875Z,164.00
2022-12-14T10:55:09.860Z,164.00
2022-12-14T10:56:09.883Z,164.00
2022-12-14T10:57:09.843Z,164.00
2022-12-14T10:58:09.838Z,176.00
2022-12-14T10:59:09.844Z,192.00
2022-12-14T11:00:10.339Z,200.00
2022-12-14T11:01:09.992Z,204.00
2022-12-14T11:02:10.176Z,212.00
2022-12-14T11:03:09.865Z,228.00
2022-12-14T11:04:09.812Z,232.00
2022-12-14T11:05:09.799Z,240.00
2022-12-14T11:06:09.778Z,236.00
2022-12-14T11:07:09.788Z,232.00
2022-12-14T11:08:09.776Z,224.00
2022-12-14T11:09:09.762Z,220.00
2022-12-14T11:10:09.749Z,212.00
2022-12-14T11:11:13.993Z,204.00
2022-12-14T11:12:09.814Z,192.00
2022-12-14T11:13:09.736Z,184.00
2022-12-14T11:14:09.726Z,176.00
2022-12-14T11:15:09.722Z,172.00
2022-12-14T11:16:09.795Z,172.00
2022-12-14T11:17:09.785Z,176.00
2022-12-14T11:18:09.766Z,172.00
2022-12-14T11:19:09.704Z,184.00
2022-12-14T11:20:09.684Z,196.00
2022-12-14T11:21:09.693Z,212.00
2022-12-14T11:22:09.683Z,224.00
2022-12-14T11:23:09.677Z,224.00
2022-12-14T11:24:09.661Z,228.00
2022-12-14T11:25:09.653Z,228.00
2022-12-14T11:26:09.653Z,220.00
2022-12-14T11:27:09.636Z,216.00
2022-12-14T11:28:09.654Z,212.00
2022-12-14T11:29:09.646Z,188.00
2022-12-14T11:30:09.618Z,188.00
2022-12-14T11:31:09.765Z,204.00
2022-12-14T11:32:09.603Z,200.00
2022-12-14T11:33:09.603Z,188.00
2022-12-14T11:34:09.600Z,176.00
2022-12-14T11:35:09.599Z,168.00
2022-12-14T11:36:09.591Z,172.00
2022-12-14T11:37:09.594Z,168.00
2022-12-14T11:38:09.568Z,164.00
2022-12-14T11:39:09.577Z,164.00
2022-12-14T11:40:09.549Z,176.00
2022-12-14T11:41:11.985Z,188.00
2022-12-14T11:42:09.533Z,192.00
2022-12-14T11:43:09.534Z,196.00
2022-12-14T11:44:09.525Z,204.00
2022-12-14T11:45:09.539Z,208.00
2022-12-14T11:46:09.627Z,220.00
2022-12-14T11:47:09.508Z,216.00
2022-12-14T11:48:09.514Z,212.00
2022-12-14T11:49:09.501Z,208.00
2022-12-14T11:50:09.483Z,220.00
2022-12-14T11:51:09.493Z,212.00
2022-12-14T11:52:09.470Z,208.00
2022-12-14T11:53:11.672Z,208.00
2022-12-14T11:54:09.471Z,216.00
2022-12-14T11:55:09.453Z,224.00
2022-12-14T11:56:09.438Z,240.00
2022-12-14T11:57:09.450Z,256.00
2022-12-14T11:58:09.440Z,264.00
2022-12-14T11:59:09.439Z,264.00
2022-12-14T12:00:09.422Z,276.00
2022-12-14T12:01:09.468Z,284.00
2022-12-14T12:02:09.521Z,276.00
2022-12-14T12:03:09.487Z,264.00
2022-12-14T12:04:09.479Z,268.00
2022-12-14T12:05:09.404Z,276.00
2022-12-14T12:06:09.391Z,276.00
2022-12-14T12:07:09.390Z,276.00
2022-12-14T12:08:09.360Z,280.00
2022-12-14T12:09:09.365Z,280.00
2022-12-14T12:10:09.369Z,272.00
2022-12-14T12:11:09.353Z,276.00
2022-12-14T12:12:09.334Z,288.00
2022-12-14T12:13:09.332Z,284.00
2022-12-14T12:14:09.319Z,280.00
2022-12-14T12:15:09.318Z,280.00
2022-12-14T12:16:09.333Z,272.00
2022-12-14T12:17:09.305Z,272.00
2022-12-14T12:18:09.322Z,268.00
2022-12-14T12:19:12.088Z,256.00
2022-12-14T12:20:09.303Z,248.00
2022-12-14T12:21:09.289Z,248.00
2022-12-14T12:22:09.283Z,256.00
2022-12-14T12:23:09.265Z,256.00
2022-12-14T12:24:09.261Z,260.00
2022-12-14T12:25:25.855Z,268.00
2022-12-14T12:26:09.244Z,276.00
2022-12-14T12:27:09.249Z,272.00
2022-12-14T12:28:09.226Z,276.00
2022-12-14T12:29:09.240Z,276.00
2022-12-14T12:30:09.238Z,284.00
2022-12-14T12:31:11.136Z,288.00
2022-12-14T12:32:09.213Z,288.00
2022-12-14T12:33:09.196Z,288.00
2022-12-14T12:34:09.201Z,288.00
2022-12-14T12:35:12.453Z,284.00
2022-12-14T12:36:09.187Z,296.00
2022-12-14T12:37:26.815Z,296.00
2022-12-14T12:38:09.157Z,292.00
2022-12-14T12:39:09.169Z,288.00
2022-12-14T12:40:09.145Z,284.00
2022-12-14T12:41:09.145Z,288.00
2022-12-14T12:42:09.157Z,280.00
2022-12-14T12:43:09.134Z,272.00
2022-12-14T12:44:09.126Z,264.00
2022-12-14T12:45:09.145Z,260.00
2022-12-14T12:46:09.143Z,264.00
2022-12-14T12:47:26.027Z,272.00
2022-12-14T12:48:09.109Z,280.00
2022-12-14T12:49:09.106Z,288.00
2022-12-14T12:50:09.078Z,296.00
2022-12-14T12:51:09.088Z,296.00
2022-12-14T12:52:09.074Z,296.00
2022-12-14T12:53:09.074Z,288.00
2022-12-14T12:54:09.054Z,284.00
2022-12-14T12:55:09.059Z,288.00
2022-12-14T12:56:09.058Z,280.00
2022-12-14T12:57:09.033Z,280.00
2022-12-14T12:58:09.021Z,272.00
2022-12-14T12:59:09.042Z,260.00